Takhtoyamsk Airport

RU-0555 · Russie

METAR anciennes RU-0555 · Takhtoyamsk Airport

Tu vois ci-dessous les METAR des derniers jours. Sélectionne une année pour parcourir les METAR plus anciens, à partir de l'année 2007.

12 juillet 2024

Temps Code Temps Temp. Vue Base cloud Vent METAR/SPECI
20:00
V
21 °C 10 km+ - 210° 210° 3 kt METAR UHMM 120900Z 21002MPS 090V260 9999 NSC 21/08 Q1007 R10/70D NOSIG RMK QFE740 R28/28004MPS
19:30
V
22 °C 10 km+ - 210° 210° 7 kt METAR UHMM 120830Z 21004MPS 9999 NSC 22/07 Q1007 R10/CLRD70 NOSIG RMK QFE740 R28/28004MPS
19:00
V
23 °C 10 km+ - 200° 200° 9 kt METAR UHMM 120800Z 20005MPS 9999 NSC 23/08 Q1006 R10/70D NOSIG RMK QFE740 R28/27004MPS
18:30
V
24 °C 10 km+ - 210° 210° 9 kt METAR UHMM 120730Z 21005MPS 9999 NSC 24/08 Q1006 R10/70D NOSIG RMK QFE740 R28/25005MPS
18:00
V
24 °C 10 km+ - 210° 210° 7 kt METAR UHMM 120700Z 21004MPS 9999 NSC 24/10 Q1006 R10/70D NOSIG RMK QFE740 R28/26004MPS
17:30
V
24 °C 10 km+ - 220° 220° 9 kt METAR UHMM 120630Z 22005MPS 9999 FEW040 24/10 Q1006 R10/70D NOSIG RMK QFE740 R28/25006MPS
17:00
V
25 °C 10 km+ - 210° 210° 11 kt METAR UHMM 120600Z 21006MPS 9999 FEW040 25/10 Q1005 R10/70D NOSIG RMK QFE739 R28/26007MPS
16:30
V
25 °C 10 km+ - 220° 220° 11 kt METAR UHMM 120530Z 22006MPS 9999 FEW040 25/11 Q1005 R10/70D NOSIG RMK QFE739 R28/27006MPS
16:00
V
26 °C 10 km+ - 210° 210° 11 kt METAR UHMM 120500Z 21006MPS 9999 FEW040 26/11 Q1005 R10/CLRD70 NOSIG RMK QFE739 R28/27007MPS
15:30
V
27 °C 10 km+ - 210° 210° 11 kt METAR UHMM 120430Z 21006MPS 9999 FEW040 27/11 Q1005 R10/70D NOSIG RMK QFE739 R28/26005MPS
15:00
V
27 °C 10 km+ - 220° 220° 9 kt METAR UHMM 120400Z 22005MPS 9999 FEW040 27/11 Q1005 R10/70D NOSIG RMK QFE739 R28/26005MPS
14:30
V
27 °C 10 km+ - 220° 220° 9 kt METAR UHMM 120330Z 22005MPS 9999 FEW040 27/11 Q1005 R10/70D NOSIG RMK QFE739 R28/26005MPS 220V300
14:00
V
27 °C 10 km+ - 210° 210° 7 kt METAR UHMM 120300Z 21004MPS 9999 FEW040 27/11 Q1005 R10/70D NOSIG RMK QFE739 R28/20001MPS
13:30
V
27 °C 10 km+ - 090° 090° 5 kt METAR UHMM 120230Z 09003MPS 060V130 9999 FEW040 27/11 Q1005 R10/70D NOSIG RMK QFE739 R28/11003MPS
13:00
V
27 °C 10 km+ - 110° 110° 5 - 15 kt METAR UHMM 120200Z 11003G08MPS 050V180 9999 FEW040 27/11 Q1006 R10/70D NOSIG RMK QFE739 R28/11003MPS 070V140
12:30
V
27 °C 10 km+ - 110° 110° 1 kt METAR UHMM 120130Z 11001MPS 9999 NSC 27/10 Q1006 R10/CLRD70 NOSIG RMK QFE740 R28/11003MPS
12:00
V
26 °C 10 km+ - 290° 290° 1 kt METAR UHMM 120100Z 29001MPS 9999 NSC 26/09 Q1006 R10/CLRD70 NOSIG RMK QFE740 R28/12003MPS
11:30
V
26 °C 10 km+ - 140° 140° 3 kt METAR UHMM 120030Z 14002MPS 070V180 9999 NSC 26/10 Q1006 R10/CLRD70 NOSIG RMK QFE740 R28/11002MPS 070V180
11:00
V
25 °C 10 km+ - 080° 080° 1 kt METAR UHMM 120000Z 08001MPS 9999 NSC 25/09 Q1007 R10/70D NOSIG RMK QFE740 R28/30001MPS
10:30
V
25 °C 10 km+ - 360° 360° 0 kt METAR UHMM 112330Z 00000MPS 9999 NSC 25/09 Q1007 R10/70D NOSIG RMK QFE740 R28/13001MPS
10:00
V
23 °C 10 km+ - 070° 070° 1 kt METAR UHMM 112300Z 07001MPS 9999 NSC 23/08 Q1007 R10/70D NOSIG RMK QFE740 R28/09002MPS 040V170
09:30
V
23 °C 10 km+ - 070° 070° 3 kt METAR UHMM 112230Z 07002MPS 9999 NSC 23/08 Q1007 R10/70D NOSIG RMK QFE741 R28/10003MPS
09:00
V
22 °C 10 km+ - 080° 080° 5 kt METAR UHMM 112200Z 08003MPS 9999 NSC 22/08 Q1007 R10/CLRD70 NOSIG RMK QFE741 R28/10003MPS
08:30
V
21 °C 10 km+ - 070° 070° 5 kt METAR UHMM 112130Z 07003MPS 9999 NSC 21/08 Q1008 R10/70D NOSIG RMK QFE741 R28/10003MPS
08:00
V
20 °C 10 km+ - 070° 070° 5 kt METAR UHMM 112100Z 07003MPS 9999 NSC 20/08 Q1008 R10/70D NOSIG RMK QFE741 R28/09003MPS
07:00
V
18 °C 10 km+ - 070° 070° 5 kt METAR UHMM 112000Z 07003MPS 9999 NSC 18/09 Q1008 R10/70D RMK QFE741 R28/11003MPS
06:00
V
16 °C 10 km+ - 070° 070° 7 kt METAR UHMM 111900Z 07004MPS 9999 NSC 16/08 Q1008 RMK QFE741 R28/07002MPS
05:00
V
14 °C 10 km+ - 090° 090° 7 kt METAR UHMM 111800Z 09004MPS 9999 NSC 14/08 Q1008 RMK QFE741 R28/08003MPS
04:00
V
14 °C 10 km+ - 070° 070° 5 kt METAR UHMM 111700Z 07003MPS 9999 NSC 14/08 Q1008 RMK QFE741 R28/08003MPS
03:00
V
11 °C 10 km+ - 060° 060° 1 kt METAR UHMM 111600Z 06001MPS 9999 NSC 11/10 Q1008 RMK QFE741 R28/07003MPS
02:00
V
11 °C 10 km+ - 070° 070° 1 kt METAR UHMM 111500Z 07001MPS 9999 NSC 11/10 Q1008 RMK QFE741 R28/07003MPS
01:00
V
13 °C 10 km+ - 310° 310° 1 kt METAR UHMM 111400Z 31001MPS 9999 NSC 13/10 Q1007 RMK QFE741 R28/07003MPS
00:00
V
17 °C 10 km+ - 100° 100° 5 kt METAR UHMM 111300Z 10003MPS 9999 NSC 17/10 Q1007 RMK QFE741 R28/09003MPS

11 juillet 2024

Temps Code Temps Temp. Vue Base cloud Vent METAR/SPECI
23:00
V
18 °C 10 km+ - 080° 080° 5 kt METAR UHMM 111200Z 08003MPS 9999 FEW050 18/10 Q1007 RMK QFE740 R28/10004MPS
22:00
V
20 °C 10 km+ - 140° 140° 5 kt METAR UHMM 111100Z 14003MPS 9999 FEW050 20/10 Q1007 RMK QFE740 R28/10004MPS
20:00
V
24 °C 10 km+ - 210° 210° 5 kt METAR UHMM 110900Z 21003MPS 9999 FEW040 24/09 Q1006 R10/CLRD70 NOSIG RMK QFE739 R28/28001MPS
19:30
V
26 °C 10 km+ - 210° 210° 3 kt METAR UHMM 110830Z 21002MPS 9999 FEW040 26/09 Q1005 R10/70D NOSIG RMK QFE739 R28/24002MPS 160V310
19:00
V
26 °C 10 km+ - 200° 200° 7 kt METAR UHMM 110800Z 20004MPS 9999 FEW040 26/09 Q1005 R10/70D NOSIG RMK QFE739 R28/25004MPS
18:30
V
27 °C 10 km+ - 220° 220° 7 kt METAR UHMM 110730Z 22004MPS 9999 FEW040 27/09 Q1005 R10/70D NOSIG RMK QFE739 R28/27004MPS
18:00
V
27 °C 10 km+ - 210° 210° 9 kt METAR UHMM 110700Z 21005MPS 9999 FEW040 27/08 Q1005 R10/CLRD70 NOSIG RMK QFE739 R28/26005MPS
17:30
V
28 °C 10 km+ - 210° 210° 9 kt METAR UHMM 110630Z 21005MPS 9999 FEW040 28/09 Q1004 R10/70D NOSIG RMK QFE738 R28/26005MPS
17:00
V
28 °C 10 km+ - 210° 210° 11 kt METAR UHMM 110600Z 21006MPS 9999 FEW040 28/09 Q1004 R10/CLRD70 NOSIG RMK QFE738 R28/25005MPS
16:30
V
28 °C 10 km+ - 210° 210° 9 kt METAR UHMM 110530Z 21005MPS 9999 FEW040 28/09 Q1004 R10/70D NOSIG RMK QFE738 R28/25005MPS
16:00
V
28 °C 10 km+ - 220° 220° 11 kt METAR UHMM 110500Z 22006MPS 9999 FEW040 28/08 Q1004 R10/70D NOSIG RMK QFE738 R28/26006MPS
15:42
V
29 °C 10 km+ - 200° 200° 9 kt SPECI UHMM 110442Z 20005MPS 110V230 9999 FEW040 29/09 Q1004 R10/70D NOSIG RMK QFE738 R28/18002MPS
15:30
V
30 °C 10 km+ - 140° 140° 5 kt METAR UHMM 110430Z 14003MPS 110V180 9999 FEW040 30/08 Q1004 R10/CLRD70 NOSIG RMK QFE738 R28/11002MPS 040V150
15:00
V
30 °C 10 km+ - 150° 150° 7 kt METAR UHMM 110400Z 15004MPS 110V190 9999 FEW040 30/08 Q1004 R10/70D NOSIG RMK QFE738 R28/14005MPS 090V180
14:41
V
30 °C 10 km+ - 110° 110° 3 kt SPECI UHMM 110341Z 11002MPS 040V190 9999 FEW040 30/07 Q1004 R10/70D NOSIG RMK QFE738 R28/10004MPS 060V150
14:30
V
30 °C 10 km+ - 050° 050° 9 kt METAR UHMM 110330Z 05005MPS 020V090 9999 NSC 30/06 Q1004 R10/70D NOSIG RMK QFE738 R28/16003MPS
14:00
V
30 °C 10 km+ - 090° 090° 7 kt METAR UHMM 110300Z 09004MPS 9999 NSC 30/06 Q1004 R10/70D NOSIG RMK QFE738 R28/08005MPS
13:30
V
29 °C 10 km+ - 080° 080° 5 kt METAR UHMM 110230Z 08003MPS 010V110 9999 NSC 29/06 Q1004 R10/70D NOSIG RMK QFE738 R28/09004MPS
13:00
V
29 °C 10 km+ - 040° 040° 5 kt METAR UHMM 110200Z 04003MPS 350V080 9999 NSC 29/07 Q1004 R10/70D NOSIG RMK QFE738 R28/08005MPS
12:30
V
29 °C 10 km+ - 070° 070° 7 kt METAR UHMM 110130Z 07004MPS 9999 NSC 29/07 Q1005 R10/70D NOSIG RMK QFE739 R28/08004MPS 030V100
12:00
V
28 °C 10 km+ - 070° 070° 5 kt METAR UHMM 110100Z 07003MPS 020V090 9999 NSC 28/07 Q1005 R10/70D NOSIG RMK QFE739 R28/11004MPS 070V140
11:30
V
28 °C 10 km+ - 060° 060° 9 - 19 kt METAR UHMM 110030Z 06005G10MPS 010V110 9999 NSC 28/06 Q1005 R10/70D NOSIG RMK QFE739 R28/10006MPS
11:00
V
27 °C 10 km+ - 010° 010° 5 kt METAR UHMM 110000Z 01003MPS 310V070 9999 NSC 27/06 Q1005 R10/70D NOSIG RMK QFE739 R28/12004MPS
10:30
V
26 °C 10 km+ - 010° 010° 7 kt METAR UHMM 102330Z 01004MPS 9999 NSC 26/06 Q1005 R10/CLRD70 NOSIG RMK QFE739 R28/07004G09MPS 040V120
10:00
V
26 °C 10 km+ - 070° 070° 5 kt METAR UHMM 102300Z 07003MPS 9999 NSC 26/07 Q1005 R10/70D NOSIG RMK QFE739 R28/10001MPS
09:30
V
24 °C 10 km+ - 140° 140° 3 kt METAR UHMM 102230Z 14002MPS 100V220 9999 NSC 24/09 Q1006 R10/CLRD70 NOSIG RMK QFE740 R28/25002MPS
09:00
V
22 °C 10 km+ - 220° 220° 1 kt METAR UHMM 102200Z 22001MPS 9999 NSC 22/11 Q1006 R10/70D NOSIG RMK QFE740 R28/26001MPS
08:30
V
20 °C 10 km+ - 160° 160° 1 kt METAR UHMM 102130Z 16001MPS 9999 NSC 20/10 Q1006 R10/70D NOSIG RMK QFE740 R28/24001MPS
08:00
V
18 °C 10 km+ - 360° 360° 0 kt METAR UHMM 102100Z 00000MPS 9999 NSC 18/09 Q1006 R10/70D NOSIG RMK QFE740 R28/26001MPS
07:00
V
13 °C 10 km+ - 070° 070° 1 kt METAR UHMM 102000Z 07001MPS 9999 NSC 13/08 Q1007 RMK QFE740 R28/14001MPS
06:00
V
10 °C 10 km+ - 360° 360° 0 kt METAR UHMM 101900Z 00000MPS 9999 NSC 10/09 Q1007 RMK QFE740 R28/10002MPS 060V170
05:00
V
6 °C 10 km+ - 060° 060° 1 kt METAR UHMM 101800Z 06001MPS 9999 NSC 06/06 Q1007 RMK QFE740 R28/09003MPS 060V140
04:00
V
6 °C 10 km+ - 360° 360° 0 kt METAR UHMM 101700Z 00000MPS 9999 NSC 06/06 Q1007 RMK QFE741 R28/09003MPS
03:00
V
7 °C 10 km+ - 360° 360° 0 kt METAR UHMM 101600Z 00000MPS 9999 NSC 07/07 Q1008 RMK QFE741 R28/09002MPS
02:00
V
8 °C 10 km+ - 360° 360° 0 kt METAR UHMM 101500Z 00000MPS 9999 NSC 08/08 Q1008 RMK QFE741 R28/09002MPS
01:00
V
9 °C 10 km+ - 360° 360° 0 kt METAR UHMM 101400Z 00000MPS 9999 NSC 09/09 Q1008 RMK QFE741 R28/11002MPS
00:00
V
13 °C 10 km+ - 080° 080° 1 kt METAR UHMM 101300Z 08001MPS 9999 NSC 13/08 Q1008 RMK QFE741 R28/07004MPS

10 juillet 2024

Temps Code Temps Temp. Vue Base cloud Vent METAR/SPECI
23:00
V
15 °C 10 km+ - 060° 060° 3 kt METAR UHMM 101200Z 06002MPS 9999 NSC 15/09 Q1009 RMK QFE742 R28/07003MPS
22:00
V
16 °C 10 km+ - 010° 010° 1 kt METAR UHMM 101100Z 01001MPS 9999 NSC 16/10 Q1008 RMK QFE741 R28/06002MPS
21:00
V
20 °C 10 km+ - 160° 160° 3 kt METAR UHMM 101000Z 16002MPS 130V210 9999 NSC 20/08 Q1008 RMK QFE741 R28/34001MPS
20:00
V
22 °C 10 km+ - 190° 190° 5 kt METAR UHMM 100900Z 19003MPS 9999 NSC 22/09 Q1008 R10/70D NOSIG RMK QFE741 R28/27002MPS
19:30
V
23 °C 10 km+ - 200° 200° 7 kt METAR UHMM 100830Z 20004MPS 9999 NSC 23/09 Q1008 R10/70D NOSIG RMK QFE741 R28/25003MPS
19:00
V
25 °C 10 km+ - 210° 210° 5 kt METAR UHMM 100800Z 21003MPS 9999 NSC 25/10 Q1008 R10/70D NOSIG RMK QFE741 R28/14003MPS
18:30
V
25 °C 10 km+ - 190° 190° 5 kt METAR UHMM 100730Z 19003MPS 9999 NSC 25/10 Q1008 R10/70D NOSIG RMK QFE741 R28/18003MPS 140V240
18:00
V
25 °C 10 km+ - 210° 210° 7 kt METAR UHMM 100700Z 21004MPS 9999 NSC 25/11 Q1008 R10/CLRD70 NOSIG RMK QFE741 R28/14003MPS 110V190
17:30
V
27 °C 10 km+ - 130° 130° 5 kt METAR UHMM 100630Z 13003MPS 9999 NSC 27/11 Q1008 R10/70D NOSIG RMK QFE741 R28/15004MPS 110V210
17:00
V
27 °C 10 km+ - 120° 120° 5 kt METAR UHMM 100600Z 12003MPS 090V160 9999 NSC 27/10 Q1008 R10/CLRD70 NOSIG RMK QFE741 R28/13003MPS 050V180
Signaler les modifications